WetterOnline ( https://www.wetteronline.de )

Wetter aktuell Leipzig

Aktuelles Wetter: Leipzig-Holzhausen (138m)

6-stündlich | Neueste Meldungen
Ortszeit Temperatur Wetter
Di, 29.09. 8:00 11.2° C bedeckt
Di, 29.09. 2:00 11.6° C bedeckt
Mo, 28.09. 20:00 15.2° C bedeckt
Mo, 28.09. 14:00 17.2° C leicht bewölkt
Mo, 28.09. 8:00 7.5° C wolkenlos
Mo, 28.09. 2:00 7.8° C bedeckt
So, 27.09. 20:00 11.4° C bedeckt
So, 27.09. 14:00 13.1° C bewölkt
Ortszeit Temperatur Wetter
Di, 29.09. 8:30 11.4° C bedeckt
Di, 29.09. 8:20 11.4° C bedeckt
Di, 29.09. 8:10 11.3° C bedeckt
Di, 29.09. 8:00 11.2° C bedeckt
Di, 29.09. 7:50 11.2° C bedeckt
Di, 29.09. 7:40 11.3° C bedeckt
Di, 29.09. 7:30 11.3° C bedeckt
Di, 29.09. 7:00 11.1° C bedeckt
Di, 29.09. 6:30 10.8° C bedeckt
Di, 29.09. 6:00 10.9° C bedeckt
Di, 29.09. 5:30 11.0° C bedeckt
Ortszeit Relative Feuchte Sichtweite
Di, 29.09. 8:00 85% 50 km
Di, 29.09. 2:00 84% 65 km
Mo, 28.09. 20:00 64% >70 km
Mo, 28.09. 14:00 44% 55 km
Mo, 28.09. 8:00 88% 55 km
Mo, 28.09. 2:00 95% 30 km
So, 27.09. 20:00 80% 65 km
So, 27.09. 14:00 64% >70 km
Ortszeit Relative Feuchte Sichtweite
Di, 29.09. 8:30 85% 50 km
Di, 29.09. 8:20 85% -
Di, 29.09. 8:10 85% -
Di, 29.09. 8:00 85% 50 km
Di, 29.09. 7:50 85% -
Di, 29.09. 7:40 85% -
Di, 29.09. 7:30 85% 55 km
Di, 29.09. 7:00 89% 60 km
Di, 29.09. 6:30 90% 65 km
Di, 29.09. 6:00 89% 65 km
Di, 29.09. 5:30 88% 65 km
Ortszeit Niederschlagsmenge Niederschlagsart
Di, 29.09. 8:00 0.0 l/m2 in 12 Std. -
Di, 29.09. 2:00 0.0 l/m2 in 6 Std. -
Mo, 28.09. 20:00 0.0 l/m2 in 12 Std. -
Mo, 28.09. 14:00 0.0 l/m2 in 6 Std. -
Mo, 28.09. 8:00 0.0 l/m2 in 12 Std. -
Mo, 28.09. 2:00 0.0 l/m2 in 6 Std. -
So, 27.09. 20:00 0.0 l/m2 in 12 Std. -
So, 27.09. 14:00 0.0 l/m2 in 6 Std. -
Ortszeit Niederschlagsmenge Niederschlagsart
Di, 29.09. 8:30 0.0 l/m2 in 1 Std. -
Di, 29.09. 8:20 keine Meldung -
Di, 29.09. 8:10 keine Meldung -
Di, 29.09. 8:00 0.0 l/m2 in 1 Std. -
Di, 29.09. 7:50 keine Meldung -
Di, 29.09. 7:40 keine Meldung -
Di, 29.09. 7:30 0.0 l/m2 in 1 Std. -
Di, 29.09. 7:00 0.0 l/m2 in 1 Std. -
Di, 29.09. 6:30 0.0 l/m2 in 1 Std. -
Di, 29.09. 6:00 0.0 l/m2 in 1 Std. -
Di, 29.09. 5:30 0.0 l/m2 in 1 Std. -
Ortszeit Stärke Spitze Richtung
km/h Bft. km/h Grad Sektor
Di, 29.09. 8:00 0 0 11 - -
Di, 29.09. 2:00 4 1 11 120° SO
Mo, 28.09. 20:00 4 1 14 90° O
Mo, 28.09. 14:00 9 2 17 130° SO
Mo, 28.09. 8:00 4 1 14 170° S
Mo, 28.09. 2:00 4 1 14 130° SO
So, 27.09. 20:00 4 1 25 180° S
So, 27.09. 14:00 13 3 30 200° S
Ortszeit Stärke Spitze Richtung
km/h Bft. km/h Grad Sektor
Di, 29.09. 8:30 4 1 7 240° SW
Di, 29.09. 8:20 4 1 - 240° SW
Di, 29.09. 8:10 4 1 - 180° S
Di, 29.09. 8:00 0 0 11 - -
Di, 29.09. 7:50 2 1 - 230° SW
Di, 29.09. 7:40 4 1 - 260° W
Di, 29.09. 7:30 6 1 11 240° SW
Di, 29.09. 7:00 4 1 7 200° S
Di, 29.09. 6:30 4 1 4 190° S
Di, 29.09. 6:00 4 1 4 190° S
Di, 29.09. 5:30 4 1 4 140° SO
Ortszeit Untergrenze Bedeckung Gattung
total tief tief mittel hoch
Di, 29.09. 8:00 2100 m 8/8 8/8 - - -
Di, 29.09. 2:00 2100 m 8/8 8/8 - - -
Mo, 28.09. 20:00 1500 m 8/8 8/8 - - -
Mo, 28.09. 14:00 5400 m 4/8 4/8 - - -
Mo, 28.09. 8:00 - 0/8 0/8 - - -
Mo, 28.09. 2:00 4500 m 8/8 8/8 - - -
So, 27.09. 20:00 1320 m 8/8 8/8 - - -
So, 27.09. 14:00 900 m 7/8 6/8 - - -
Ortszeit Bedeckungsgrad in Achtel und Wolkenuntergrenze
Di, 29.09. 8:30 8(1800m)
Di, 29.09. 8:20 8(1800m)
Di, 29.09. 8:10 8(1800m)
Di, 29.09. 8:00 8(2100m)
Di, 29.09. 7:50 8(2100m)
Di, 29.09. 7:40 8(2100m)
Di, 29.09. 7:30 8(2100m)
Di, 29.09. 7:00 8(2100m)
Di, 29.09. 6:30 8(2100m)
Di, 29.09. 6:00 8(2100m)
Di, 29.09. 5:30 1(1500m) 8(2100m)
Ortszeit Luftdruck NN (hPa) Tendenz (hPa in 3 Std.)
Di, 29.09. 8:00 1016 + 0,9
Di, 29.09. 2:00 1014 + 0,4
Mo, 28.09. 20:00 1012 + 1,5
Mo, 28.09. 14:00 1011 - 0,1
Mo, 28.09. 8:00 1011 + 0,9
Mo, 28.09. 2:00 1010 0,0
So, 27.09. 20:00 1008 + 1,4
So, 27.09. 14:00 1005 + 1,0
Ortszeit Luftdruck NN (hPa) Tendenz (hPa in 3 Std.)
Di, 29.09. 8:30 1016 + 0,9
Di, 29.09. 8:20 1016 keine Meldung
Di, 29.09. 8:10 1016 keine Meldung
Di, 29.09. 8:00 1016 + 0,9
Di, 29.09. 7:50 1016 keine Meldung
Di, 29.09. 7:40 1016 keine Meldung
Di, 29.09. 7:30 1015 + 0,9
Di, 29.09. 7:00 1015 + 1,0
Di, 29.09. 6:30 1015 + 0,7
Di, 29.09. 6:00 1015 + 0,5
Di, 29.09. 5:30 1015 + 0,4
Ortszeit Schneehöhe (cm)
Di, 29.09. 8:00 -
Di, 29.09. 2:00 -
Mo, 28.09. 20:00 -
Mo, 28.09. 14:00 -
Mo, 28.09. 8:00 -
Mo, 28.09. 2:00 -
So, 27.09. 20:00 -
So, 27.09. 14:00 -
Ortszeit Schneehöhe (cm)
Di, 29.09. 8:30 -
Di, 29.09. 8:20 -
Di, 29.09. 8:10 -
Di, 29.09. 8:00 -
Di, 29.09. 7:50 -
Di, 29.09. 7:40 -
Di, 29.09. 7:30 -
Di, 29.09. 7:00 -
Di, 29.09. 6:30 -
Di, 29.09. 6:00 -
Di, 29.09. 5:30 -
Link zu dieser Seite / Seite empfehlen

Das Wetter in ...